createdAt,value
2018-05-12T00:00:43.838Z,95623.56
2018-05-12T00:03:12.950Z,95622.64
2018-05-12T00:05:41.961Z,95620.41
2018-05-12T00:08:10.193Z,95615.66
2018-05-12T00:10:39.236Z,95616.18
2018-05-12T00:13:07.494Z,95611.49
2018-05-12T00:15:35.753Z,95615.39
2018-05-12T00:18:04.758Z,95609.34
2018-05-12T00:20:32.994Z,95608.55
2018-05-12T00:23:01.249Z,95611.40
2018-05-12T00:25:29.487Z,95608.30
2018-05-12T00:27:57.771Z,95606.36
2018-05-12T00:30:26.007Z,95612.01
2018-05-12T00:32:54.714Z,95606.73
2018-05-12T00:35:22.954Z,95612.94
2018-05-12T00:37:51.193Z,95603.85
2018-05-12T00:40:19.441Z,95608.73
2018-05-12T00:42:47.689Z,95601.03
2018-05-12T00:45:16.210Z,95598.15
2018-05-12T00:47:44.445Z,95605.86
2018-05-12T00:50:12.681Z,95600.84
2018-05-12T00:52:40.935Z,95604.26
2018-05-12T00:55:09.174Z,95606.40
2018-05-12T00:57:38.501Z,95603.42
2018-05-12T01:00:06.745Z,95601.45
2018-05-12T01:02:34.983Z,95603.66
2018-05-12T01:05:03.233Z,95599.31
2018-05-12T01:07:31.473Z,95594.20
2018-05-12T01:09:59.718Z,95600.83
2018-05-12T01:12:27.974Z,95599.50
2018-05-12T01:14:56.213Z,95595.44
2018-05-12T01:17:25.225Z,95591.41
2018-05-12T01:19:53.465Z,95597.88
2018-05-12T01:22:21.709Z,95594.94
2018-05-12T01:24:49.966Z,95592.16
2018-05-12T01:27:18.209Z,95590.70
2018-05-12T01:29:47.219Z,95593.41
2018-05-12T01:32:15.470Z,95591.41
2018-05-12T01:34:43.722Z,95598.05
2018-05-12T01:37:11.970Z,95595.49
2018-05-12T01:39:40.218Z,95593.76
2018-05-12T01:42:08.493Z,95589.59
2018-05-12T01:44:37.511Z,95593.52
2018-05-12T01:47:05.761Z,95593.55
2018-05-12T01:49:34.022Z,95600.09
2018-05-12T01:52:03.034Z,95597.27
2018-05-12T01:54:31.514Z,95597.50
2018-05-12T01:56:59.758Z,95599.84
2018-05-12T01:59:28.005Z,95594.80
2018-05-12T02:01:56.255Z,95600.72
2018-05-12T02:04:24.495Z,95597.41
2018-05-12T02:06:53.505Z,95593.34
2018-05-12T02:09:21.754Z,95595.36
2018-05-12T02:11:49.994Z,95594.16
2018-05-12T02:14:18.469Z,95595.87
2018-05-12T02:16:46.710Z,95593.13
2018-05-12T02:19:15.731Z,95591.41
2018-05-12T02:21:43.965Z,95593.89
2018-05-12T02:24:12.978Z,95591.77
2018-05-12T02:26:41.218Z,95593.44
2018-05-12T02:29:09.466Z,95589.53
2018-05-12T02:31:37.702Z,95588.78
2018-05-12T02:34:06.698Z,95583.23
2018-05-12T02:36:34.950Z,95585.70
2018-05-12T02:39:04.274Z,95585.48
2018-05-12T02:41:33.283Z,95582.80
2018-05-12T02:44:01.518Z,95591.66
2018-05-12T02:46:29.762Z,95591.55
2018-05-12T02:48:58.014Z,95585.41
2018-05-12T02:51:26.254Z,95587.58
2018-05-12T02:53:55.572Z,95584.48
2018-05-12T02:56:23.806Z,95580.16
2018-05-12T02:58:52.040Z,95576.02
2018-05-12T03:01:20.600Z,95576.83
2018-05-12T03:03:49.593Z,95579.55
2018-05-12T03:06:17.827Z,95580.76
2018-05-12T03:08:46.074Z,95583.73
2018-05-12T03:11:14.314Z,95579.40
2018-05-12T03:13:43.321Z,95575.91
2018-05-12T03:16:11.565Z,95583.17
2018-05-12T03:18:39.815Z,95588.96
2018-05-12T03:21:08.049Z,95593.70
2018-05-12T03:23:36.314Z,95593.98
2018-05-12T03:26:05.369Z,95595.04
2018-05-12T03:28:33.623Z,95590.05
2018-05-12T03:31:01.868Z,95588.95
2018-05-12T03:33:30.114Z,95594.09
2018-05-12T03:35:59.118Z,95592.88
2018-05-12T03:38:28.421Z,95597.33
2018-05-12T03:40:57.429Z,95592.48
2018-05-12T03:43:25.670Z,95591.42
2018-05-12T03:45:53.973Z,95594.63
2018-05-12T03:48:22.210Z,95597.97
2018-05-12T03:50:50.526Z,95598.27
2018-05-12T03:53:19.522Z,95596.91
2018-05-12T03:55:47.781Z,95595.97
2018-05-12T03:58:16.777Z,95607.08
2018-05-12T04:00:45.782Z,95606.25
2018-05-12T04:03:14.035Z,95608.42
2018-05-12T04:09:08.722Z,95607.45
2018-05-12T04:11:54.810Z,95607.43
2018-05-12T04:14:23.053Z,95609.31
2018-05-12T04:16:51.306Z,95607.78
2018-05-12T04:19:20.321Z,95621.25
2018-05-12T04:21:48.569Z,95618.02
2018-05-12T04:24:17.565Z,95615.98
2018-05-12T04:26:46.566Z,95608.20
2018-05-12T04:29:15.675Z,95615.31
2018-05-12T04:31:44.673Z,95611.10
2018-05-12T04:34:12.898Z,95612.47
2018-05-12T04:36:41.133Z,95613.16
2018-05-12T04:39:09.394Z,95623.95
2018-05-12T04:41:37.964Z,95616.97
2018-05-12T04:44:06.962Z,95615.22
2018-05-12T04:46:35.194Z,95620.73
2018-05-12T04:49:03.438Z,95623.11
2018-05-12T04:51:31.677Z,95627.43
2018-05-12T04:54:00.698Z,95632.61
2018-05-12T04:56:28.926Z,95625.25
2018-05-12T04:58:57.169Z,95621.30
2018-05-12T05:01:25.397Z,95620.06
2018-05-12T05:03:54.410Z,95617.17
2018-05-12T05:06:22.646Z,95619.88
2018-05-12T05:08:50.929Z,95619.34
2018-05-12T05:11:19.183Z,95616.52
2018-05-12T05:13:47.414Z,95612.20
2018-05-12T05:16:15.978Z,95609.29
2018-05-12T05:18:44.981Z,95604.71
2018-05-12T05:21:13.220Z,95605.27
2018-05-12T05:23:41.460Z,95604.70
2018-05-12T05:26:09.797Z,95606.23
2018-05-12T05:28:38.817Z,95601.29
2018-05-12T05:31:07.482Z,95607.47
2018-05-12T05:33:36.485Z,95601.18
2018-05-12T05:36:04.755Z,95611.25
2018-05-12T05:38:33.771Z,95609.30
2018-05-12T05:41:02.007Z,95608.99
2018-05-12T05:43:31.226Z,95607.65
2018-05-12T05:46:00.214Z,95612.00
2018-05-12T05:48:29.210Z,95610.17
2018-05-12T05:50:57.454Z,95610.61
2018-05-12T05:53:25.683Z,95605.30
2018-05-12T05:55:54.249Z,95610.47
2018-05-12T05:58:22.542Z,95614.77
2018-05-12T06:00:50.766Z,95611.88
2018-05-12T06:03:19.002Z,95613.73
2018-05-12T06:05:47.439Z,95615.14
2018-05-12T06:08:16.434Z,95614.77
2018-05-12T06:10:45.429Z,95614.46
2018-05-12T06:13:14.437Z,95607.25
2018-05-12T06:15:42.681Z,95608.80
2018-05-12T06:18:10.975Z,95607.53
2018-05-12T06:20:39.178Z,95609.31
2018-05-12T06:23:07.423Z,95606.06
2018-05-12T06:25:36.430Z,95610.45
2018-05-12T06:28:04.689Z,95611.28
2018-05-12T06:30:33.701Z,95612.47
2018-05-12T06:33:01.938Z,95609.38
2018-05-12T06:35:30.185Z,95611.20
2018-05-12T06:37:58.415Z,95611.68
2018-05-12T06:40:27.450Z,95616.03
2018-05-12T06:42:55.785Z,95608.77
2018-05-12T06:45:24.297Z,95608.27
2018-05-12T06:47:52.532Z,95609.38
2018-05-12T06:50:21.521Z,95610.36
2018-05-12T06:52:50.584Z,95605.89
2018-05-12T06:55:18.770Z,95609.09
2018-05-12T06:57:47.007Z,95605.33
2018-05-12T07:00:15.245Z,95605.16
2018-05-12T07:02:44.260Z,95601.48
2018-05-12T07:05:12.551Z,95604.70
2018-05-12T07:07:40.776Z,95608.42
2018-05-12T07:10:09.042Z,95608.09
2018-05-12T07:12:37.557Z,95608.43
2018-05-12T07:15:06.602Z,95600.05
2018-05-12T07:17:34.829Z,95594.73
2018-05-12T07:20:03.073Z,95598.36
2018-05-12T07:22:31.318Z,95591.73
2018-05-12T07:24:59.547Z,95593.22
2018-05-12T07:27:28.866Z,95590.66
2018-05-12T07:29:57.154Z,95595.30
2018-05-12T07:32:25.378Z,95593.11
2018-05-12T07:34:53.625Z,95589.38
2018-05-12T07:37:21.859Z,95594.05
2018-05-12T07:39:50.090Z,95594.06
2018-05-12T07:42:18.605Z,95585.09
2018-05-12T07:44:47.605Z,95590.59
2018-05-12T07:47:15.854Z,95595.45
2018-05-12T07:49:44.129Z,95591.84
2018-05-12T07:52:12.355Z,95592.58
2018-05-12T07:54:40.594Z,95593.18
2018-05-12T07:57:09.599Z,95590.84
2018-05-12T07:59:38.619Z,95588.81
2018-05-12T08:02:06.966Z,95580.69
2018-05-12T08:04:36.214Z,95580.45
2018-05-12T08:07:04.452Z,95579.27
2018-05-12T08:09:32.690Z,95580.77
2018-05-12T08:12:00.941Z,95579.34
2018-05-12T08:14:29.182Z,95580.55
2018-05-12T08:16:57.421Z,95573.30
2018-05-12T08:19:25.785Z,95572.16
2018-05-12T08:21:54.024Z,95575.91
2018-05-12T08:24:22.283Z,95575.42
2018-05-12T08:26:50.563Z,95574.59
2018-05-12T08:29:18.773Z,95568.34
2018-05-12T08:31:47.032Z,95565.11
2018-05-12T08:34:15.284Z,95559.11
2018-05-12T08:36:43.537Z,95557.67
2018-05-12T08:39:12.553Z,95544.75
2018-05-12T08:41:40.789Z,95547.11
2018-05-12T08:44:09.045Z,95536.94
2018-05-12T08:46:37.292Z,95541.28
2018-05-12T08:49:05.543Z,95538.98
2018-05-12T08:51:34.534Z,95538.95
2018-05-12T08:54:03.555Z,95540.52
2018-05-12T08:56:31.816Z,95535.69
2018-05-12T08:59:00.820Z,95544.83
2018-05-12T09:01:29.388Z,95543.95
2018-05-12T09:03:58.399Z,95539.15
2018-05-12T09:06:26.637Z,95536.64
2018-05-12T09:08:54.881Z,95546.31
2018-05-12T09:11:23.119Z,95536.98
2018-05-12T09:13:51.374Z,95536.81
2018-05-12T09:16:20.374Z,95536.42
2018-05-12T09:18:49.381Z,95535.88
2018-05-12T09:21:17.622Z,95529.96
2018-05-12T09:23:45.866Z,95532.48
2018-05-12T09:26:14.117Z,95527.23
2018-05-12T09:28:42.360Z,95521.70
2018-05-12T09:31:11.366Z,95527.34
2018-05-12T09:33:39.606Z,95526.63
2018-05-12T09:36:07.857Z,95527.16
2018-05-12T09:38:36.102Z,95517.11
2018-05-12T09:41:04.362Z,95523.48
2018-05-12T09:43:33.361Z,95519.10
2018-05-12T09:46:01.605Z,95516.09
2018-05-12T09:48:29.853Z,95513.98
2018-05-12T09:50:58.094Z,95512.16
2018-05-12T09:53:26.330Z,95501.99
2018-05-12T09:55:55.353Z,95504.55
2018-05-12T09:58:24.405Z,95505.44
2018-05-12T10:00:52.629Z,95498.48
2018-05-12T10:03:20.893Z,95490.53
2018-05-12T10:05:49.891Z,95495.84
2018-05-12T10:08:18.136Z,95501.03
2018-05-12T10:10:47.163Z,95497.94
2018-05-12T10:13:15.409Z,95489.77
2018-05-12T10:15:43.654Z,95494.84
2018-05-12T10:18:11.885Z,95485.66
2018-05-12T10:20:40.894Z,95483.43
2018-05-12T10:23:09.127Z,95480.59
2018-05-12T10:25:37.744Z,95472.78
2018-05-12T10:28:06.040Z,95473.28
2018-05-12T10:30:34.261Z,95479.53
2018-05-12T10:33:02.498Z,95473.70
2018-05-12T10:35:31.050Z,95470.30
2018-05-12T10:37:59.282Z,95468.33
2018-05-12T10:40:27.513Z,95466.19
2018-05-12T10:42:55.757Z,95455.52
2018-05-12T10:45:24.802Z,95465.24
2018-05-12T10:47:53.159Z,95456.42
2018-05-12T10:50:21.396Z,95455.06
2018-05-12T10:52:49.624Z,95448.14
2018-05-12T10:55:17.873Z,95437.70
2018-05-12T10:57:46.965Z,95438.48
2018-05-12T11:00:15.222Z,95435.30
2018-05-12T11:02:43.465Z,95433.20
2018-05-12T11:05:11.697Z,95425.17
2018-05-12T11:07:39.943Z,95430.45
2018-05-12T11:10:08.190Z,95419.58
2018-05-12T11:12:36.438Z,95420.45
2018-05-12T11:15:04.702Z,95411.41
2018-05-12T11:17:32.969Z,95415.64
2018-05-12T11:20:01.978Z,95408.77
2018-05-12T11:22:30.230Z,95406.52
2018-05-12T11:24:59.234Z,95399.70
2018-05-12T11:27:27.481Z,95394.50
2018-05-12T11:29:56.502Z,95394.28
2018-05-12T11:32:25.510Z,95389.00
2018-05-12T11:34:53.797Z,95380.37
2018-05-12T11:37:22.034Z,95384.71
2018-05-12T11:39:51.046Z,95378.86
2018-05-12T11:42:19.294Z,95375.71
2018-05-12T11:44:47.569Z,95373.54
2018-05-12T11:47:15.870Z,95370.39
2018-05-12T11:49:44.873Z,95365.91
2018-05-12T11:52:13.112Z,95357.88
2018-05-12T11:54:41.338Z,95354.66
2018-05-12T11:57:09.594Z,95355.82
2018-05-12T11:59:37.833Z,95348.11
2018-05-12T12:02:06.073Z,95337.66
2018-05-12T12:04:34.315Z,95340.00
2018-05-12T12:07:02.573Z,95343.77
2018-05-12T12:09:31.593Z,95336.92
2018-05-12T12:11:59.845Z,95334.67
2018-05-12T12:14:28.861Z,95333.32
2018-05-12T12:16:57.141Z,95333.77
2018-05-12T12:19:25.397Z,95326.02
2018-05-12T12:21:54.416Z,95322.94
2018-05-12T12:24:22.657Z,95319.75
2018-05-12T12:26:51.663Z,95316.73
2018-05-12T12:29:20.679Z,95315.08
2018-05-12T12:31:48.906Z,95313.78
2018-05-12T12:34:17.181Z,95309.27
2018-05-12T12:36:45.430Z,95307.31
2018-05-12T12:39:13.669Z,95295.75
2018-05-12T12:41:41.915Z,95295.76
2018-05-12T12:44:10.926Z,95288.89
2018-05-12T12:46:39.928Z,95293.29
2018-05-12T12:49:08.186Z,95284.73
2018-05-12T12:51:37.272Z,95283.11
2018-05-12T12:54:05.437Z,95279.60
2018-05-12T12:56:33.700Z,95280.58
2018-05-12T12:59:01.931Z,95277.75
2018-05-12T13:01:30.307Z,95268.84
2018-05-12T13:03:58.533Z,95274.10
2018-05-12T13:06:26.769Z,95269.60
2018-05-12T13:08:55.022Z,95264.02
2018-05-12T13:11:23.265Z,95262.77
2018-05-12T13:13:51.511Z,95264.45
2018-05-12T13:16:19.741Z,95263.58
2018-05-12T13:18:48.750Z,95258.04
2018-05-12T13:21:17.002Z,95249.68
2018-05-12T13:23:46.003Z,95244.52
2018-05-12T13:26:15.001Z,95251.20
2018-05-12T13:28:44.026Z,95241.70
2018-05-12T13:31:12.582Z,95243.73
2018-05-12T13:33:40.935Z,95244.62
2018-05-12T13:36:09.086Z,95242.89
2018-05-12T13:38:37.705Z,95240.67
2018-05-12T13:41:06.722Z,95225.58
2018-05-12T13:43:34.943Z,95229.83
2018-05-12T13:46:03.194Z,95234.16
2018-05-12T13:48:31.441Z,95227.95
2018-05-12T13:50:59.676Z,95222.90
2018-05-12T13:53:28.182Z,95224.80
2018-05-12T13:55:57.216Z,95220.93
2018-05-12T13:58:25.419Z,95215.92
2018-05-12T14:00:53.967Z,95219.58
2018-05-12T14:03:22.194Z,95213.83
2018-05-12T14:05:50.426Z,95216.34
2018-05-12T14:08:18.673Z,95206.73
2018-05-12T14:10:46.912Z,95206.18
2018-05-12T14:13:15.162Z,95200.84
2018-05-12T14:15:43.390Z,95202.23
2018-05-12T14:18:12.789Z,95199.61
2018-05-12T14:20:41.793Z,95194.75
2018-05-12T14:23:10.023Z,95193.34
2018-05-12T14:25:38.393Z,95196.97
2018-05-12T14:28:06.630Z,95190.52
2018-05-12T14:30:34.869Z,95189.73
2018-05-12T14:33:03.111Z,95185.73
2018-05-12T14:35:31.342Z,95172.74
2018-05-12T14:37:59.588Z,95183.64
2018-05-12T14:40:27.817Z,95178.35
2018-05-12T14:42:56.374Z,95182.04
2018-05-12T14:45:24.610Z,95176.63
2018-05-12T14:47:52.850Z,95180.12
2018-05-12T14:50:21.398Z,95173.37
2018-05-12T14:52:50.415Z,95170.20
2018-05-12T14:55:18.636Z,95158.63
2018-05-12T14:57:46.881Z,95168.30
2018-05-12T15:00:15.332Z,95156.88
2018-05-12T15:02:44.326Z,95162.08
2018-05-12T15:05:12.564Z,95166.17
2018-05-12T15:07:40.810Z,95160.19
2018-05-12T15:10:09.046Z,95152.77
2018-05-12T15:12:38.058Z,95150.81
2018-05-12T15:15:06.289Z,95152.48
2018-05-12T15:17:35.310Z,95160.59
2018-05-12T15:20:03.558Z,95145.47
2018-05-12T15:22:31.791Z,95149.05
2018-05-12T15:25:00.038Z,95146.59
2018-05-12T15:27:29.034Z,95149.36
2018-05-12T15:29:57.274Z,95148.03
2018-05-12T15:32:25.527Z,95142.55
2018-05-12T15:34:53.769Z,95140.95
2018-05-12T15:37:22.014Z,95141.58
2018-05-12T15:39:51.010Z,95137.38
2018-05-12T15:42:20.017Z,95139.25
2018-05-12T15:44:49.022Z,95139.70
2018-05-12T15:47:17.266Z,95126.36
2018-05-12T15:49:45.506Z,95137.41
2018-05-12T15:52:14.146Z,95125.66
2018-05-12T15:54:43.153Z,95128.97
2018-05-12T15:57:11.386Z,95124.57
2018-05-12T15:59:39.631Z,95130.59
2018-05-12T16:02:07.879Z,95125.33
2018-05-12T16:04:36.121Z,95120.49
2018-05-12T16:07:04.718Z,95126.44
2018-05-12T16:09:33.723Z,95121.80
2018-05-12T16:12:01.950Z,95121.41
2018-05-12T16:14:30.199Z,95122.53
2018-05-12T16:16:58.436Z,95115.30
2018-05-12T16:19:27.456Z,95113.47
2018-05-12T16:21:55.686Z,95111.33
2018-05-12T16:24:23.938Z,95105.33
2018-05-12T16:26:52.174Z,95117.94
2018-05-12T16:29:20.421Z,95106.30
2018-05-12T16:31:48.653Z,95107.03
2018-05-12T16:34:16.901Z,95106.05
2018-05-12T16:36:45.138Z,95106.02
2018-05-12T16:39:13.373Z,95108.47
2018-05-12T16:41:41.924Z,95107.59
2018-05-12T16:44:10.916Z,95111.45
2018-05-12T16:46:39.909Z,95107.50
2018-05-12T16:49:08.153Z,95109.13
2018-05-12T16:51:36.657Z,95105.16
2018-05-12T16:54:05.669Z,95103.56
2018-05-12T16:56:33.907Z,95107.95
2018-05-12T16:59:02.280Z,95112.39
2018-05-12T17:01:30.498Z,95106.53
2018-05-12T17:03:58.751Z,95103.97
2018-05-12T17:06:27.859Z,95101.67
2018-05-12T17:08:56.789Z,95100.80
2018-05-12T17:11:25.025Z,95099.48
2018-05-12T17:13:53.271Z,95091.52
2018-05-12T17:16:21.514Z,95095.22
2018-05-12T17:18:49.746Z,95091.50
2018-05-12T17:21:18.757Z,95097.62
2018-05-12T17:23:46.988Z,95087.86
2018-05-12T17:26:15.220Z,95092.48
2018-05-12T17:28:43.457Z,95092.25
2018-05-12T17:31:12.467Z,95085.92
2018-05-12T17:33:40.706Z,95084.77
2018-05-12T17:36:10.457Z,95083.52
2018-05-12T17:38:38.703Z,95093.16
2018-05-12T17:41:06.933Z,95092.55
2018-05-12T17:43:35.181Z,95099.50
2018-05-12T17:46:03.430Z,95098.17
2018-05-12T17:48:32.431Z,95100.22
2018-05-12T17:51:01.445Z,95101.13
2018-05-12T17:53:29.694Z,95102.23
2018-05-12T17:55:58.689Z,95106.67
2018-05-12T17:58:27.702Z,95105.52
2018-05-12T18:00:55.938Z,95106.63
2018-05-12T18:03:24.555Z,95101.33
2018-05-12T18:05:53.558Z,95101.49
2018-05-12T18:08:21.802Z,95099.59
2018-05-12T18:10:50.050Z,95100.47
2018-05-12T18:13:18.288Z,95098.54
2018-05-12T18:15:46.522Z,95100.82
2018-05-12T18:18:16.282Z,95099.39
2018-05-12T18:20:44.506Z,95100.13
2018-05-12T18:23:12.870Z,95100.17
2018-05-12T18:25:41.911Z,95092.30
2018-05-12T18:28:10.921Z,95093.05
2018-05-12T18:30:39.153Z,95095.55
2018-05-12T18:33:07.405Z,95087.63
2018-05-12T18:35:35.638Z,95093.22
2018-05-12T18:38:03.874Z,95086.87
2018-05-12T18:40:32.885Z,95103.08
2018-05-12T18:43:01.138Z,95105.38
2018-05-12T18:45:29.373Z,95109.41
2018-05-12T18:47:57.661Z,95098.66
2018-05-12T18:50:25.910Z,95103.02
2018-05-12T18:52:54.146Z,95104.78
2018-05-12T18:55:22.375Z,95111.66
2018-05-12T18:57:50.937Z,95107.62
2018-05-12T19:00:19.930Z,95107.17
2018-05-12T19:02:48.167Z,95104.05
2018-05-12T19:05:17.177Z,95109.95
2018-05-12T19:07:46.189Z,95111.98
2018-05-12T19:10:14.453Z,95123.02
2018-05-12T19:12:43.454Z,95119.75
2018-05-12T19:15:12.445Z,95120.47
2018-05-12T19:17:41.469Z,95120.54
2018-05-12T19:20:09.714Z,95130.48
2018-05-12T19:22:38.718Z,95122.63
2018-05-12T19:25:06.945Z,95130.08
2018-05-12T19:27:35.191Z,95130.34
2018-05-12T19:30:03.437Z,95131.34
2018-05-12T19:32:32.627Z,95133.89
2018-05-12T19:35:01.638Z,95129.50
2018-05-12T19:37:29.869Z,95128.75
2018-05-12T19:39:59.610Z,95132.42
2018-05-12T19:42:28.617Z,95129.74
2018-05-12T19:44:56.853Z,95127.58
2018-05-12T19:47:25.082Z,95120.48
2018-05-12T19:49:53.333Z,95114.11
2018-05-12T19:52:21.577Z,95111.92
2018-05-12T19:54:49.823Z,95114.86
2018-05-12T19:57:18.070Z,95115.08
2018-05-12T19:59:46.310Z,95108.34
2018-05-12T20:02:14.637Z,95105.02
2018-05-12T20:04:42.874Z,95106.77
2018-05-12T20:07:11.879Z,95101.03
2018-05-12T20:09:40.874Z,95096.31
2018-05-12T20:12:09.225Z,95102.20
2018-05-12T20:14:37.502Z,95100.59
2018-05-12T20:17:05.749Z,95093.77
2018-05-12T20:19:34.004Z,95098.34
2018-05-12T20:22:02.277Z,95091.17
2018-05-12T20:24:30.506Z,95092.09
2018-05-12T20:26:58.750Z,95087.74
2018-05-12T20:29:27.107Z,95087.43
2018-05-12T20:31:55.358Z,95088.66
2018-05-12T20:34:24.438Z,95088.16
2018-05-12T20:36:53.525Z,95086.50
2018-05-12T20:39:21.920Z,95083.20
2018-05-12T20:41:50.923Z,95079.28
2018-05-12T20:44:19.168Z,95079.39
2018-05-12T20:46:48.198Z,95089.31
2018-05-12T20:49:16.517Z,95085.52
2018-05-12T20:51:45.191Z,95081.62
2018-05-12T20:54:13.426Z,95083.55
2018-05-12T20:56:42.448Z,95086.91
2018-05-12T20:59:11.003Z,95088.37
2018-05-12T21:01:39.299Z,95084.15
2018-05-12T21:04:07.521Z,95090.68
2018-05-12T21:06:35.809Z,95090.55
2018-05-12T21:09:04.058Z,95088.23
2018-05-12T21:11:32.305Z,95088.62
2018-05-12T21:14:00.591Z,95086.72
2018-05-12T21:16:28.842Z,95082.67
2018-05-12T21:18:57.084Z,95087.28
2018-05-12T21:21:25.329Z,95083.81
2018-05-12T21:23:53.587Z,95086.81
2018-05-12T21:26:21.805Z,95092.36
2018-05-12T21:28:50.065Z,95094.98
2018-05-12T21:31:18.314Z,95095.57
2018-05-12T21:33:46.554Z,95094.30
2018-05-12T21:36:15.582Z,95090.54
2018-05-12T21:38:43.810Z,95095.09
2018-05-12T21:41:12.842Z,95090.85
2018-05-12T21:43:41.086Z,95086.97
2018-05-12T21:46:10.172Z,95090.72
2018-05-12T21:48:38.669Z,95087.20
2018-05-12T21:51:07.739Z,95086.80
2018-05-12T21:53:36.804Z,95089.52
2018-05-12T21:56:05.418Z,95090.97
2018-05-12T21:58:33.702Z,95086.91
2018-05-12T22:01:02.772Z,95084.27
2018-05-12T22:03:31.069Z,95085.77
2018-05-12T22:05:59.358Z,95080.91
2018-05-12T22:08:28.424Z,95079.88
2018-05-12T22:10:56.701Z,95081.97
2018-05-12T22:13:25.014Z,95077.58
2018-05-12T22:15:53.336Z,95076.30
2018-05-12T22:18:21.621Z,95074.14
2018-05-12T22:20:49.922Z,95079.41
2018-05-12T22:23:19.613Z,95076.29
2018-05-12T22:25:47.922Z,95073.91
2018-05-12T22:28:16.974Z,95066.33
2018-05-12T22:30:45.222Z,95076.92
2018-05-12T22:33:13.452Z,95069.14
2018-05-12T22:35:41.689Z,95067.35
2018-05-12T22:38:09.922Z,95061.71
2018-05-12T22:40:38.934Z,95056.99
2018-05-12T22:43:07.182Z,95050.55
2018-05-12T22:45:36.186Z,95053.41
2018-05-12T22:48:05.183Z,95057.06
2018-05-12T22:50:34.486Z,95052.89
2018-05-12T22:53:03.483Z,95054.03
2018-05-12T22:55:31.745Z,95056.25
2018-05-12T22:58:00.758Z,95053.47
2018-05-12T23:00:28.989Z,95053.94
2018-05-12T23:02:57.234Z,95055.68
2018-05-12T23:05:25.463Z,95047.30
2018-05-12T23:07:54.474Z,95043.31
2018-05-12T23:10:22.718Z,95044.58
2018-05-12T23:12:50.966Z,95041.47
2018-05-12T23:15:19.216Z,95045.30
2018-05-12T23:17:47.452Z,95046.10
2018-05-12T23:20:16.457Z,95040.42
2018-05-12T23:22:48.314Z,95035.48
2018-05-12T23:25:17.311Z,95038.10
2018-05-12T23:27:46.322Z,95033.89
2018-05-12T23:30:14.554Z,95023.28
2018-05-12T23:32:42.799Z,95023.19
2018-05-12T23:35:11.026Z,95022.63
2018-05-12T23:37:40.038Z,95021.81
2018-05-12T23:40:08.270Z,95024.59
2018-05-12T23:42:36.502Z,95027.78
2018-05-12T23:45:04.749Z,95025.08
2018-05-12T23:47:33.845Z,95023.13
2018-05-12T23:50:02.847Z,95021.86
2018-05-12T23:52:31.134Z,95030.50
2018-05-12T23:54:59.499Z,95029.80
2018-05-12T23:57:27.738Z,95034.73
2018-05-12T23:59:55.969Z,95036.59
